createdAt,value
2023-05-22T00:02:51.206Z,16.06
2023-05-22T00:07:07.470Z,16.32
2023-05-22T00:11:19.899Z,16.51
2023-05-22T00:15:33.626Z,16.40
2023-05-22T00:19:46.669Z,16.24
2023-05-22T00:23:59.053Z,16.13
2023-05-22T00:28:12.431Z,15.93
2023-05-22T00:32:29.053Z,15.97
2023-05-22T00:36:41.372Z,15.99
2023-05-22T00:40:54.173Z,16.06
2023-05-22T00:45:07.626Z,16.04
2023-05-22T00:49:19.942Z,15.77
2023-05-22T00:53:32.487Z,15.78
2023-05-22T00:57:46.341Z,15.66
2023-05-22T01:01:59.268Z,15.73
2023-05-22T01:06:18.314Z,15.78
2023-05-22T01:10:31.254Z,15.86
2023-05-22T01:14:49.427Z,16.14
2023-05-22T01:19:22.931Z,15.74
2023-05-22T01:24:16.385Z,15.85
2023-05-22T01:28:50.335Z,15.92
2023-05-22T01:33:05.041Z,15.89
2023-05-22T01:37:20.319Z,15.73
2023-05-22T01:41:36.497Z,15.44
2023-05-22T01:45:49.665Z,15.23
2023-05-22T01:50:02.509Z,15.66
2023-05-22T01:54:39.489Z,15.48
2023-05-22T01:59:23.115Z,15.77
2023-05-22T02:03:37.890Z,15.39
2023-05-22T02:07:51.239Z,15.44
2023-05-22T02:12:04.210Z,15.21
2023-05-22T02:16:19.689Z,15.19
2023-05-22T02:20:32.183Z,14.83
2023-05-22T02:24:47.818Z,14.66
2023-05-22T02:29:02.507Z,14.67
2023-05-22T02:33:18.393Z,14.90
2023-05-22T02:37:31.281Z,14.90
2023-05-22T02:41:43.741Z,15.01
2023-05-22T02:45:56.232Z,15.39
2023-05-22T02:50:09.036Z,15.32
2023-05-22T02:54:22.105Z,15.15
2023-05-22T02:58:35.730Z,15.12
2023-05-22T03:02:48.324Z,15.04
2023-05-22T03:07:02.061Z,14.93
2023-05-22T03:11:14.478Z,14.74
2023-05-22T03:15:26.903Z,14.84
2023-05-22T03:19:43.725Z,14.80
2023-05-22T03:23:56.605Z,15.17
2023-05-22T03:28:09.043Z,15.35
2023-05-22T03:32:25.053Z,15.37
2023-05-22T03:36:37.412Z,15.27
2023-05-22T03:40:50.694Z,15.10
2023-05-22T03:45:03.376Z,15.13
2023-05-22T03:49:16.466Z,15.11
2023-05-22T03:53:29.909Z,15.15
2023-05-22T03:57:42.307Z,15.14
2023-05-22T04:01:54.772Z,15.34
2023-05-22T04:06:07.858Z,15.42
2023-05-22T04:10:22.901Z,15.65
2023-05-22T04:14:35.297Z,15.88
2023-05-22T04:18:47.854Z,16.10
2023-05-22T04:23:00.310Z,16.38
2023-05-22T04:27:13.425Z,16.60
2023-05-22T04:31:26.359Z,17.85
2023-05-22T04:35:40.523Z,18.41
2023-05-22T04:39:58.568Z,19.50
2023-05-22T04:44:11.212Z,20.57
2023-05-22T04:48:23.565Z,22.10
2023-05-22T04:52:36.473Z,19.04
2023-05-22T04:56:48.971Z,18.20
2023-05-22T05:01:01.729Z,18.59
2023-05-22T05:05:14.392Z,20.63
2023-05-22T05:09:26.887Z,21.79
2023-05-22T05:13:40.183Z,20.46
2023-05-22T05:17:52.682Z,20.89
2023-05-22T05:22:05.426Z,21.75
2023-05-22T05:26:17.976Z,22.35
2023-05-22T05:30:32.165Z,20.62
2023-05-22T05:35:13.871Z,20.16
2023-05-22T05:39:30.716Z,20.74
2023-05-22T05:43:45.449Z,20.57
2023-05-22T05:47:57.921Z,21.72
2023-05-22T05:52:10.574Z,21.60
2023-05-22T05:56:23.117Z,22.48
2023-05-22T06:00:36.823Z,23.21
2023-05-22T06:04:49.605Z,24.05
2023-05-22T06:09:06.609Z,24.90
2023-05-22T06:13:32.021Z,24.77
2023-05-22T06:17:46.831Z,24.40
2023-05-22T06:21:59.468Z,23.79
2023-05-22T06:26:11.986Z,23.67
2023-05-22T06:30:39.096Z,24.81
2023-05-22T06:34:57.210Z,24.64
2023-05-22T06:39:10.570Z,25.30
2023-05-22T06:43:43.114Z,25.98
2023-05-22T06:47:58.677Z,25.67
2023-05-22T06:52:11.603Z,25.14
2023-05-22T06:56:25.046Z,24.89
2023-05-22T07:01:04.001Z,25.35
2023-05-22T07:05:23.056Z,25.84
2023-05-22T07:09:41.166Z,26.37
2023-05-22T07:13:53.638Z,25.57
2023-05-22T07:18:06.769Z,24.35
2023-05-22T07:22:19.906Z,24.00
2023-05-22T07:26:34.194Z,25.76
2023-05-22T07:30:51.682Z,25.24
2023-05-22T07:35:05.099Z,25.38
2023-05-22T07:39:18.991Z,25.96
2023-05-22T07:43:31.816Z,26.30
2023-05-22T07:47:45.525Z,26.15
2023-05-22T07:51:58.494Z,26.35
2023-05-22T07:56:12.399Z,25.55
2023-05-22T08:00:27.590Z,25.20
2023-05-22T08:04:40.211Z,24.70
2023-05-22T08:08:55.308Z,24.45
2023-05-22T08:13:07.830Z,24.58
2023-05-22T08:17:20.497Z,24.76
2023-05-22T08:21:34.932Z,24.94
2023-05-22T08:25:47.263Z,24.55
2023-05-22T08:29:59.627Z,24.83
2023-05-22T08:34:12.115Z,25.93
2023-05-22T08:38:24.539Z,26.43
2023-05-22T08:42:37.290Z,27.02
2023-05-22T08:46:51.842Z,26.94
2023-05-22T08:51:06.198Z,27.06
2023-05-22T08:55:21.283Z,28.27
2023-05-22T08:59:42.271Z,27.11
2023-05-22T09:03:56.357Z,26.92
2023-05-22T09:08:19.953Z,26.20
2023-05-22T09:12:33.683Z,26.70
2023-05-22T09:16:47.703Z,28.44
2023-05-22T09:21:00.800Z,27.94
2023-05-22T09:25:19.089Z,27.63
2023-05-22T09:29:31.814Z,27.42
2023-05-22T09:33:44.809Z,27.35
2023-05-22T09:37:58.013Z,26.92
2023-05-22T09:42:15.232Z,26.83
2023-05-22T09:46:27.699Z,27.03
2023-05-22T09:50:40.520Z,27.93
2023-05-22T09:54:56.131Z,28.02
2023-05-22T09:59:10.078Z,26.34
2023-05-22T10:03:24.685Z,27.10
2023-05-22T10:07:42.677Z,26.71
2023-05-22T10:11:58.983Z,26.28
2023-05-22T10:16:12.476Z,26.28
2023-05-22T10:20:29.638Z,25.80
2023-05-22T10:24:42.853Z,24.90
2023-05-22T10:29:18.218Z,24.65
2023-05-22T10:33:49.082Z,25.35
2023-05-22T10:38:23.097Z,25.92
2023-05-22T10:42:38.229Z,25.86
2023-05-22T10:46:50.988Z,24.90
2023-05-22T10:51:23.203Z,24.58
2023-05-22T10:55:57.143Z,24.39
2023-05-22T11:00:19.567Z,23.88
2023-05-22T11:04:36.481Z,23.98
2023-05-22T11:08:50.676Z,24.59
2023-05-22T11:13:11.615Z,25.43
2023-05-22T11:17:29.261Z,25.71
2023-05-22T11:21:46.153Z,26.12
2023-05-22T11:26:18.120Z,25.43
2023-05-22T11:30:33.315Z,25.85
2023-05-22T11:34:47.740Z,25.69
2023-05-22T11:39:00.540Z,25.69
2023-05-22T11:43:12.913Z,25.71
2023-05-22T11:47:32.022Z,24.51
2023-05-22T11:51:44.775Z,24.37
2023-05-22T11:56:05.179Z,23.46
2023-05-22T12:00:19.265Z,22.85
2023-05-22T12:04:33.540Z,22.50
2023-05-22T12:08:45.897Z,21.55
2023-05-22T12:12:58.274Z,19.38
2023-05-22T12:17:16.460Z,18.49
2023-05-22T12:21:28.885Z,17.74
2023-05-22T12:25:41.214Z,17.47
2023-05-22T12:29:56.840Z,17.27
2023-05-22T12:34:09.339Z,17.09
2023-05-22T12:38:22.684Z,18.17
2023-05-22T12:42:35.071Z,19.08
2023-05-22T12:46:47.663Z,19.53
2023-05-22T12:51:00.219Z,19.51
2023-05-22T12:55:12.780Z,19.76
2023-05-22T12:59:25.136Z,20.63
2023-05-22T13:03:37.761Z,21.45
2023-05-22T13:07:50.360Z,21.92
2023-05-22T13:12:02.954Z,21.79
2023-05-22T13:16:15.515Z,21.72
2023-05-22T13:20:28.028Z,21.51
2023-05-22T13:24:40.525Z,20.89
2023-05-22T13:28:53.037Z,19.59
2023-05-22T13:33:05.478Z,18.55
2023-05-22T13:37:19.023Z,17.98
2023-05-22T13:41:31.670Z,18.35
2023-05-22T13:45:44.139Z,18.22
2023-05-22T13:49:56.627Z,18.20
2023-05-22T13:54:09.026Z,18.02
2023-05-22T13:58:23.629Z,18.51
2023-05-22T14:02:36.412Z,18.84
2023-05-22T14:06:48.926Z,19.12
2023-05-22T14:11:01.390Z,19.36
2023-05-22T14:15:16.295Z,19.30
2023-05-22T14:19:28.773Z,19.38
2023-05-22T14:23:41.977Z,19.20
2023-05-22T14:27:54.198Z,19.33
2023-05-22T14:32:07.319Z,19.62
2023-05-22T14:36:19.664Z,19.82
2023-05-22T14:40:34.308Z,19.81
2023-05-22T14:44:46.631Z,19.46
2023-05-22T14:48:59.093Z,19.37
2023-05-22T14:53:11.950Z,19.52
2023-05-22T14:57:24.291Z,20.18
2023-05-22T15:01:36.641Z,20.69
2023-05-22T15:05:49.158Z,21.05
2023-05-22T15:10:01.738Z,21.40
2023-05-22T15:14:14.170Z,21.62
2023-05-22T15:18:27.530Z,21.72
2023-05-22T15:22:40.770Z,22.01
2023-05-22T15:26:53.247Z,21.97
2023-05-22T15:31:05.788Z,22.12
2023-05-22T15:35:18.182Z,22.15
2023-05-22T15:39:30.691Z,22.21
2023-05-22T15:43:43.167Z,21.72
2023-05-22T15:47:55.875Z,21.51
2023-05-22T15:52:08.604Z,21.71
2023-05-22T15:56:21.904Z,21.56
2023-05-22T16:00:41.488Z,21.50
2023-05-22T16:04:53.996Z,21.49
2023-05-22T16:09:06.495Z,21.50
2023-05-22T16:13:19.019Z,21.36
2023-05-22T16:17:31.573Z,21.32
2023-05-22T16:21:45.030Z,21.60
2023-05-22T16:25:57.807Z,21.77
2023-05-22T16:30:11.629Z,22.01
2023-05-22T16:34:23.963Z,22.14
2023-05-22T16:38:36.637Z,22.19
2023-05-22T16:42:49.086Z,21.87
2023-05-22T16:47:01.524Z,22.03
2023-05-22T16:51:13.955Z,22.27
2023-05-22T16:55:26.404Z,22.34
2023-05-22T16:59:38.955Z,22.10
2023-05-22T17:03:54.862Z,22.19
2023-05-22T17:08:07.380Z,21.86
2023-05-22T17:12:19.877Z,21.80
2023-05-22T17:16:33.730Z,21.51
2023-05-22T17:20:50.854Z,21.35
2023-05-22T17:25:03.575Z,21.08
2023-05-22T17:29:16.245Z,20.94
2023-05-22T17:33:28.730Z,20.80
2023-05-22T17:37:41.380Z,20.74
2023-05-22T17:41:54.294Z,20.63
2023-05-22T17:46:06.904Z,20.52
2023-05-22T17:50:19.334Z,20.38
2023-05-22T17:54:35.827Z,20.43
2023-05-22T17:58:48.261Z,20.33
2023-05-22T18:03:00.966Z,20.18
2023-05-22T18:07:14.429Z,20.05
2023-05-22T18:11:26.928Z,19.93
2023-05-22T18:15:39.461Z,19.74
2023-05-22T18:19:51.905Z,19.64
2023-05-22T18:24:04.425Z,19.56
2023-05-22T18:28:17.008Z,19.50
2023-05-22T18:32:29.548Z,19.39
2023-05-22T18:36:42.501Z,19.21
2023-05-22T18:40:56.033Z,19.16
2023-05-22T18:45:09.071Z,19.01
2023-05-22T18:49:21.517Z,19.10
2023-05-22T18:53:33.945Z,19.04
2023-05-22T18:57:46.390Z,18.90
2023-05-22T19:01:58.791Z,18.71
2023-05-22T19:06:11.201Z,18.72
2023-05-22T19:10:23.703Z,18.66
2023-05-22T19:14:36.163Z,18.67
2023-05-22T19:18:48.711Z,18.68
2023-05-22T19:23:01.216Z,18.58
2023-05-22T19:27:13.635Z,18.51
2023-05-22T19:31:28.215Z,18.39
2023-05-22T19:35:41.201Z,18.33
2023-05-22T19:39:54.564Z,18.26
2023-05-22T19:44:09.076Z,18.13
2023-05-22T19:48:21.709Z,18.12
2023-05-22T19:52:35.203Z,17.99
2023-05-22T19:56:48.695Z,17.89
2023-05-22T20:01:01.223Z,17.93
2023-05-22T20:05:14.228Z,17.76
2023-05-22T20:09:27.281Z,17.74
2023-05-22T20:13:39.936Z,17.68
2023-05-22T20:17:53.870Z,17.60
2023-05-22T20:22:06.586Z,17.52
2023-05-22T20:26:20.057Z,17.64
2023-05-22T20:30:32.990Z,17.76
2023-05-22T20:34:46.796Z,17.61
2023-05-22T20:38:59.302Z,17.41
2023-05-22T20:43:14.214Z,17.48
2023-05-22T20:47:26.661Z,17.37
2023-05-22T20:51:39.683Z,17.30
2023-05-22T20:55:53.515Z,17.21
2023-05-22T21:00:09.325Z,17.22
2023-05-22T21:04:21.880Z,17.13
2023-05-22T21:08:34.318Z,17.21
2023-05-22T21:12:46.707Z,17.21
2023-05-22T21:16:59.216Z,17.18
2023-05-22T21:21:11.622Z,17.10
2023-05-22T21:25:24.030Z,17.20
2023-05-22T21:29:36.421Z,16.96
2023-05-22T21:33:48.816Z,16.87
2023-05-22T21:38:01.290Z,16.77
2023-05-22T21:42:16.365Z,16.59
2023-05-22T21:46:28.931Z,16.57
2023-05-22T21:50:41.551Z,16.54
2023-05-22T21:54:54.488Z,16.48
2023-05-22T21:59:06.977Z,16.48
2023-05-22T22:03:19.437Z,16.43
2023-05-22T22:07:31.993Z,16.39
2023-05-22T22:11:44.352Z,16.37
2023-05-22T22:15:57.647Z,16.33
2023-05-22T22:20:10.746Z,16.16
2023-05-22T22:24:23.526Z,16.11
2023-05-22T22:28:35.899Z,16.13
2023-05-22T22:32:49.093Z,16.00
2023-05-22T22:37:02.214Z,16.13
2023-05-22T22:41:14.762Z,16.18
2023-05-22T22:45:27.226Z,16.18
2023-05-22T22:49:39.720Z,15.99
2023-05-22T22:53:52.214Z,15.93
2023-05-22T22:58:04.792Z,15.87
2023-05-22T23:02:17.355Z,15.65
2023-05-22T23:06:30.076Z,15.53
2023-05-22T23:10:42.561Z,15.53
2023-05-22T23:14:55.694Z,15.48
2023-05-22T23:19:09.720Z,15.52
2023-05-22T23:23:22.289Z,15.50
2023-05-22T23:27:34.716Z,15.42
2023-05-22T23:31:47.748Z,15.77
2023-05-22T23:36:00.166Z,16.04
2023-05-22T23:40:12.983Z,15.80
2023-05-22T23:44:25.361Z,15.74
2023-05-22T23:48:37.722Z,15.65
2023-05-22T23:52:50.182Z,15.51
2023-05-22T23:57:02.562Z,15.54
